CSAV Lonquen — A8OT2 — position and weather

sailwx.info

Track history (hours):
 
Tides and Currents Weather Stations Pressure Air Temp Water Temp Dewpoint Dewpoint Depression Visibility Wind Speed Wind Dir Waves Ship Positions

CSAV Lonquen

Last reported at 2017-Jan-27 12:33 UTC. Time now 2017-Feb-26 19:18 UTC.
Position N 01°51' E 102°28'.
Warning: this ship's position is 30 days out of date.

Length 261 m; draft 11.5 m.

Type: Ship (hazmat cat A). MMSI: 636091501.

Date/timePositionNaut miles runAvg speedWind from/ knotsBaromVisibWave heightAir tempDewpointWater temp
2017-Jan-27 12:33N 01°51' E 102°28'1210.6
2017-Jan-27 11:24N 01°46' E 102°39'9 9.3
2017-Jan-27 10:27N 01°43' E 102°47'6310.1
2017-Jan-27 04:13N 01°15' E 103°43'3 1.1
2017-Jan-27 01:17N 01°17' E 103°46'0 0.1
2017-Jan-27 00:23N 01°17' E 103°46'0 0.0
2017-Jan-26 23:32N 01°17' E 103°46'0 0.0
2017-Jan-26 22:32N 01°17' E 103°46'0 0.0
2017-Jan-26 21:32N 01°17' E 103°46'0 0.0
2017-Jan-26 18:20N 01°17' E 103°46'0 0.0
2017-Jan-26 16:20N 01°17' E 103°46'0 0.0
2017-Jan-26 15:32N 01°17' E 103°46'0 0.0
2017-Jan-26 14:17N 01°17' E 103°46'0 0.0
2017-Jan-26 13:32N 01°17' E 103°46'1 0.5
2017-Jan-26 12:32N 01°17' E 103°46'3 3.2
2017-Jan-26 11:33N 01°14' E 103°47'10 9.9
2017-Jan-26 10:33N 01°15' E 103°57'9 8.7
2017-Jan-26 09:32N 01°16' E 104°06'  
Track history (hours):
 
Tides and Currents Weather Stations Pressure Air Temp Water Temp Dewpoint Dewpoint Depression Visibility Wind Speed Wind Dir Waves Ship Positions

CSAV Lonquen

Last reported at 2017-Jan-27 12:33 UTC. Time now 2017-Feb-26 19:18 UTC.
Position N 01°51' E 102°28'.
Warning: this ship's position is 30 days out of date.

Length 261 m; draft 11.5 m.

Type: Ship (hazmat cat A). MMSI: 636091501.

Date/timePositionNaut miles runAvg speedWind from/ knotsBaromVisibWave heightAir tempDewpointWater temp
2017-Jan-27 12:33N 01°51' E 102°28'1210.6
2017-Jan-27 11:24N 01°46' E 102°39'9 9.3
2017-Jan-27 10:27N 01°43' E 102°47'6310.1
2017-Jan-27 04:13N 01°15' E 103°43'3 1.1
2017-Jan-27 01:17N 01°17' E 103°46'0 0.1
2017-Jan-27 00:23N 01°17' E 103°46'0 0.0
2017-Jan-26 23:32N 01°17' E 103°46'0 0.0
2017-Jan-26 22:32N 01°17' E 103°46'0 0.0
2017-Jan-26 21:32N 01°17' E 103°46'0 0.0
2017-Jan-26 18:20N 01°17' E 103°46'0 0.0
2017-Jan-26 16:20N 01°17' E 103°46'0 0.0
2017-Jan-26 15:32N 01°17' E 103°46'0 0.0
2017-Jan-26 14:17N 01°17' E 103°46'0 0.0
2017-Jan-26 13:32N 01°17' E 103°46'1 0.5
2017-Jan-26 12:32N 01°17' E 103°46'3 3.2
2017-Jan-26 11:33N 01°14' E 103°47'10 9.9
2017-Jan-26 10:33N 01°15' E 103°57'9 8.7
2017-Jan-26 09:32N 01°16' E 104°06'  

Dump ship's entire track history